Time;durP1;ratioP1;P1;durP2;ratioP2;P2;SDS_P1;SDS_P2;PMS_P1;PMS_P2;Temp;Humidity;BMP_temperature;BMP_pressure;BME280_temperature;BME280_humidity;BME280_pressure;Samples;Min_cycle;Max_cycle;Signal;HPM_P1;HPM_P2
2022/07/12 00:01:58;;;;;;;5.30;3.50;;;12.50;99.90;;;;;;5047560;28;20196;-81
2022/07/12 00:04:30;;;;;;;6.20;4.00;;;12.50;99.90;;;;;;5041039;28;20209;-80
2022/07/12 00:07:01;;;;;;;5.57;3.92;;;12.60;99.90;;;;;;5032156;28;20213;-81
2022/07/12 00:09:32;;;;;;;5.55;3.50;;;12.70;99.90;;;;;;5046125;28;20197;-81
2022/07/12 00:12:03;;;;;;;6.82;3.83;;;12.80;99.90;;;;;;5048891;28;20220;-82
2022/07/12 00:14:34;;;;;;;8.35;3.92;;;12.80;99.90;;;;;;5044886;28;20223;-82
2022/07/12 00:17:07;;;;;;;9.27;4.45;;;12.80;99.90;;;;;;5050095;28;20686;-84
2022/07/12 00:19:42;;;;;;;5.40;3.63;;;12.70;99.90;;;;;;5046592;28;20203;-85
2022/07/12 00:22:13;;;;;;;5.50;3.83;;;12.80;99.90;;;;;;5069526;28;20616;-85
2022/07/12 00:24:44;;;;;;;6.00;4.45;;;12.80;99.90;;;;;;5052734;28;20192;-84
2022/07/12 00:27:15;;;;;;;8.85;4.80;;;13.00;99.90;;;;;;5037851;28;20199;-85
2022/07/12 00:29:46;;;;;;;7.30;4.68;;;13.00;99.90;;;;;;5050431;28;20722;-84
2022/07/12 00:32:16;;;;;;;6.13;4.43;;;13.10;99.90;;;;;;5038660;28;20218;-86
2022/07/12 00:34:50;;;;;;;8.57;4.35;;;13.20;99.90;;;;;;5052183;28;20197;-85
2022/07/12 00:37:22;;;;;;;4.97;4.20;;;13.30;99.90;;;;;;5051634;28;20225;-87
2022/07/12 00:39:56;;;;;;;6.80;4.75;;;13.30;99.90;;;;;;5033325;28;20185;-86
2022/07/12 00:42:27;;;;;;;7.82;5.25;;;13.40;99.90;;;;;;5032679;28;20193;-87
2022/07/12 00:44:57;;;;;;;7.30;4.78;;;13.30;99.90;;;;;;5045903;28;20197;-85
2022/07/12 00:47:37;;;;;;;7.05;5.57;;;13.30;99.90;;;;;;5052078;28;20208;-87
2022/07/12 00:50:11;;;;;;;6.72;5.30;;;13.40;99.90;;;;;;5052134;28;20618;-84
2022/07/12 00:52:42;;;;;;;7.75;4.95;;;13.40;99.90;;;;;;5052303;28;20223;-87
2022/07/12 00:55:14;;;;;;;6.75;5.00;;;13.40;99.90;;;;;;5035274;28;20200;-87
2022/07/12 00:57:46;;;;;;;7.53;5.32;;;13.50;99.90;;;;;;5038543;28;20193;-89
2022/07/12 01:00:19;;;;;;;7.55;4.90;;;13.60;99.90;;;;;;5045026;28;20597;-89
2022/07/12 01:02:50;;;;;;;8.07;5.57;;;13.70;99.90;;;;;;5047429;28;20263;-86
2022/07/12 01:05:25;;;;;;;8.43;4.85;;;13.80;99.90;;;;;;5038909;28;20680;-89
2022/07/12 01:08:00;;;;;;;8.50;4.97;;;13.70;99.90;;;;;;5051414;28;20238;-88
2022/07/12 01:10:35;;;;;;;6.85;5.40;;;13.70;99.90;;;;;;5036471;28;20201;-83
2022/07/12 01:13:05;;;;;;;6.78;4.90;;;13.80;99.90;;;;;;5042510;28;20222;-83
2022/07/12 01:15:37;;;;;;;8.73;5.68;;;13.90;99.90;;;;;;5047688;28;20221;-82
2022/07/12 01:18:08;;;;;;;11.70;6.65;;;14.00;99.90;;;;;;5041337;28;20189;-84
2022/07/12 01:20:41;;;;;;;9.48;5.60;;;14.10;99.90;;;;;;5051882;28;20191;-82
2022/07/12 01:23:15;;;;;;;10.23;5.65;;;14.20;99.90;;;;;;5045006;28;20201;-82
2022/07/12 01:25:46;;;;;;;10.63;6.15;;;14.30;99.90;;;;;;5049151;28;20694;-84
2022/07/12 01:28:18;;;;;;;9.77;7.00;;;14.30;99.90;;;;;;5042779;28;20300;-83
2022/07/12 01:30:48;;;;;;;9.82;6.35;;;14.30;99.90;;;;;;5045610;28;20196;-80
2022/07/12 01:33:21;;;;;;;8.98;5.80;;;14.20;99.90;;;;;;5047514;28;20212;-82
2022/07/12 01:35:52;;;;;;;7.63;5.88;;;14.30;99.90;;;;;;5047295;28;20193;-81
2022/07/12 01:38:25;;;;;;;7.25;5.72;;;14.40;99.90;;;;;;5050441;28;20705;-82
2022/07/12 01:40:56;;;;;;;8.05;5.65;;;14.50;99.90;;;;;;5043754;28;20197;-82
2022/07/12 01:43:26;;;;;;;7.60;5.80;;;14.60;99.90;;;;;;5049410;28;20200;-82
2022/07/12 01:45:57;;;;;;;8.02;5.80;;;14.70;99.90;;;;;;5044644;28;20197;-82
2022/07/12 01:48:28;;;;;;;10.30;6.20;;;14.80;99.90;;;;;;5048200;28;20224;-82
2022/07/12 01:50:58;;;;;;;6.50;4.80;;;14.80;99.90;;;;;;5050341;28;20200;-82
2022/07/12 01:53:31;;;;;;;7.18;5.18;;;14.70;99.90;;;;;;5048876;28;20786;-82
2022/07/12 01:56:02;;;;;;;7.68;5.18;;;14.80;99.90;;;;;;5037502;28;20197;-81
2022/07/12 01:58:32;;;;;;;7.95;5.50;;;14.90;99.90;;;;;;5050455;28;20201;-82
2022/07/12 02:01:03;;;;;;;9.23;5.32;;;14.90;99.90;;;;;;5046818;28;20197;-82
2022/07/12 02:03:38;;;;;;;6.15;4.40;;;15.00;99.90;;;;;;5047432;28;20545;-82
2022/07/12 02:06:10;;;;;;;6.03;4.18;;;15.00;99.90;;;;;;5029960;28;20197;-81
2022/07/12 02:08:45;;;;;;;7.47;3.70;;;15.20;99.90;;;;;;5029914;28;20645;-82
2022/07/12 02:11:16;;;;;;;6.20;3.97;;;15.10;99.90;;;;;;5049523;28;20283;-82
2022/07/12 02:13:46;;;;;;;6.60;3.40;;;15.20;99.90;;;;;;5043843;28;20227;-82
2022/07/12 02:16:17;;;;;;;8.13;3.60;;;15.20;99.90;;;;;;5047777;28;20228;-83
2022/07/12 02:18:47;;;;;;;6.60;4.32;;;15.20;99.90;;;;;;5040103;28;20657;-82
2022/07/12 02:21:18;;;;;;;7.15;3.78;;;15.40;99.90;;;;;;5049005;28;20207;-83
2022/07/12 02:23:51;;;;;;;6.20;3.90;;;15.50;99.90;;;;;;5049028;28;20200;-83
2022/07/12 02:26:22;;;;;;;9.32;4.13;;;15.60;99.90;;;;;;5049586;28;20193;-84
2022/07/12 02:28:52;;;;;;;5.53;3.60;;;15.70;99.90;;;;;;5048176;28;20270;-82
2022/07/12 02:31:24;;;;;;;7.85;3.58;;;15.80;99.90;;;;;;5040975;28;20592;-81
2022/07/12 02:33:55;;;;;;;5.40;3.20;;;15.90;99.90;;;;;;5043460;28;20703;-84
2022/07/12 02:36:28;;;;;;;5.40;3.40;;;16.00;99.90;;;;;;5046848;28;20208;-82
2022/07/12 02:39:03;;;;;;;3.40;2.80;;;16.10;99.90;;;;;;5047708;28;20703;-83
2022/07/12 02:41:34;;;;;;;5.03;2.85;;;16.20;99.90;;;;;;5048969;28;20197;-83
2022/07/12 02:44:05;;;;;;;5.65;2.70;;;16.30;99.90;;;;;;5048365;28;20274;-82
2022/07/12 02:46:35;;;;;;;4.20;2.55;;;16.30;99.90;;;;;;5040495;28;20218;-82
2022/07/12 02:49:06;;;;;;;3.78;2.20;;;16.20;99.90;;;;;;5048302;28;20231;-83
2022/07/12 02:51:37;;;;;;;4.65;2.67;;;16.30;99.90;;;;;;5045706;28;20189;-83
2022/07/12 02:54:10;;;;;;;5.70;2.53;;;16.30;99.90;;;;;;5038527;28;20641;-83
2022/07/12 02:56:42;;;;;;;3.60;2.50;;;16.40;99.90;;;;;;5049916;28;20200;-82
2022/07/12 02:59:12;;;;;;;7.13;2.78;;;16.40;99.90;;;;;;5049486;28;20666;-82
2022/07/12 03:01:43;;;;;;;3.67;2.70;;;16.40;99.90;;;;;;5038748;28;20193;-82
2022/07/12 03:04:14;;;;;;;4.38;2.90;;;16.40;99.90;;;;;;5048435;28;20247;-82
2022/07/12 03:06:45;;;;;;;4.28;2.50;;;16.50;99.90;;;;;;5048511;28;20197;-84
2022/07/12 03:09:18;;;;;;;3.72;2.30;;;16.60;99.90;;;;;;5035369;28;20200;-83
2022/07/12 03:11:48;;;;;;;5.38;2.50;;;16.60;99.90;;;;;;5051796;28;20192;-83
2022/07/12 03:14:19;;;;;;;6.18;2.45;;;16.70;99.90;;;;;;5052533;28;20228;-83
2022/07/12 03:16:50;;;;;;;5.03;2.00;;;16.60;99.90;;;;;;5042429;28;20267;-84
2022/07/12 03:19:21;;;;;;;2.90;2.00;;;16.70;99.90;;;;;;5034847;28;20255;-82
2022/07/12 03:21:51;;;;;;;4.82;2.03;;;16.80;99.90;;;;;;5042534;28;20194;-81
2022/07/12 03:24:25;;;;;;;3.40;1.63;;;16.90;99.90;;;;;;5050368;28;20616;-82
2022/07/12 03:26:56;;;;;;;6.07;2.08;;;16.80;99.90;;;;;;5051626;28;20690;-81
2022/07/12 03:29:26;;;;;;;1.73;1.13;;;16.60;99.90;;;;;;5051195;28;20656;-81
2022/07/12 03:31:57;;;;;;;3.03;1.35;;;16.50;99.90;;;;;;5047090;28;20201;-86
2022/07/12 03:34:28;;;;;;;2.53;1.35;;;16.50;99.90;;;;;;5045779;28;20298;-82
2022/07/12 03:36:58;;;;;;;2.72;1.33;;;16.40;99.90;;;;;;5034047;28;20207;-82
2022/07/12 03:39:31;;;;;;;3.42;1.58;;;16.40;99.90;;;;;;5034461;28;20197;-82
2022/07/12 03:42:01;;;;;;;3.90;1.80;;;16.50;99.90;;;;;;5032793;28;20673;-84
2022/07/12 03:44:33;;;;;;;3.13;1.90;;;16.50;99.90;;;;;;5038821;28;20228;-82
2022/07/12 03:47:04;;;;;;;2.80;1.52;;;16.50;99.90;;;;;;5050214;28;20207;-81
2022/07/12 03:49:34;;;;;;;3.72;1.75;;;16.50;99.90;;;;;;5051496;28;20200;-81
2022/07/12 03:52:05;;;;;;;3.00;1.63;;;16.50;99.90;;;;;;5042210;28;20263;-81
2022/07/12 03:54:38;;;;;;;3.40;1.83;;;16.60;99.90;;;;;;5038644;28;20224;-81
2022/07/12 03:57:18;;;;;;;3.33;1.30;;;16.50;99.90;;;;;;5036318;28;20259;-82
2022/07/12 03:59:49;;;;;;;2.35;1.60;;;16.60;99.90;;;;;;5040274;28;20201;-82
2022/07/12 04:02:20;;;;;;;2.22;1.67;;;16.60;99.90;;;;;;5043997;28;20284;-84
2022/07/12 04:04:54;;;;;;;2.47;1.63;;;16.80;99.90;;;;;;5051380;28;20604;-83
2022/07/12 04:07:24;;;;;;;1.92;1.40;;;16.70;99.90;;;;;;5051592;28;20629;-83
2022/07/12 04:09:57;;;;;;;1.67;0.98;;;16.70;99.90;;;;;;5049522;28;20717;-83
2022/07/12 04:12:27;;;;;;;1.52;1.10;;;16.70;99.90;;;;;;5050499;28;20204;-83
2022/07/12 04:14:58;;;;;;;2.75;1.20;;;16.60;99.90;;;;;;5047991;28;20709;-81
2022/07/12 04:17:29;;;;;;;2.88;1.33;;;16.60;99.90;;;;;;5041181;28;20201;-82
2022/07/12 04:20:00;;;;;;;2.28;1.20;;;16.60;99.90;;;;;;5052533;28;20208;-83
2022/07/12 04:22:31;;;;;;;2.65;1.45;;;16.60;99.90;;;;;;5048803;28;20200;-83
2022/07/12 04:25:03;;;;;;;3.58;1.55;;;16.50;99.90;;;;;;5050129;28;20196;-83
2022/07/12 04:27:34;;;;;;;2.47;1.70;;;16.50;99.90;;;;;;5050919;28;20196;-83
2022/07/12 04:30:05;;;;;;;3.10;1.60;;;16.50;99.90;;;;;;5040805;28;20197;-83
2022/07/12 04:32:36;;;;;;;1.90;1.33;;;16.60;99.90;;;;;;5049053;28;20211;-84
2022/07/12 04:35:07;;;;;;;2.28;1.20;;;16.60;99.90;;;;;;5043672;28;20219;-84
2022/07/12 04:37:38;;;;;;;1.15;1.05;;;16.60;99.90;;;;;;5051354;28;20232;-84
2022/07/12 04:40:12;;;;;;;4.15;1.73;;;16.70;99.90;;;;;;5049978;28;20551;-85
2022/07/12 04:42:42;;;;;;;2.85;1.65;;;16.70;99.90;;;;;;5051170;28;20247;-84
2022/07/12 04:45:13;;;;;;;3.00;1.20;;;16.60;99.90;;;;;;5047764;28;20197;-83
2022/07/12 04:47:44;;;;;;;2.05;1.27;;;16.60;99.90;;;;;;5047236;28;20211;-83
2022/07/12 04:50:14;;;;;;;2.70;1.23;;;16.60;99.90;;;;;;5032422;28;20266;-85
2022/07/12 04:52:45;;;;;;;1.50;1.13;;;16.60;99.90;;;;;;5031870;28;20213;-87
2022/07/12 04:55:18;;;;;;;4.05;1.30;;;16.60;99.90;;;;;;5034466;28;21046;-85
2022/07/12 04:57:49;;;;;;;1.52;1.20;;;16.50;99.90;;;;;;5051787;28;20223;-85
2022/07/12 05:00:22;;;;;;;2.20;1.00;;;16.50;99.90;;;;;;5050912;28;20189;-86
2022/07/12 05:02:54;;;;;;;0.63;0.63;;;16.50;99.90;;;;;;5051558;28;20532;-84
2022/07/12 05:05:24;;;;;;;3.50;0.85;;;16.50;99.90;;;;;;5050955;28;20761;-86
2022/07/12 05:07:55;;;;;;;1.48;0.85;;;16.50;99.90;;;;;;5051251;28;20192;-86
2022/07/12 05:10:28;;;;;;;1.88;0.98;;;16.60;99.90;;;;;;5049613;28;20197;-86
2022/07/12 05:12:58;;;;;;;1.27;0.93;;;16.60;99.90;;;;;;5051863;28;20192;-87
2022/07/12 05:15:30;;;;;;;1.55;0.90;;;16.60;99.90;;;;;;5045805;28;20192;-87
2022/07/12 05:18:00;;;;;;;1.65;1.00;;;16.60;99.90;;;;;;5052242;28;20197;-86
2022/07/12 05:20:32;;;;;;;2.67;1.00;;;16.60;99.90;;;;;;5050262;28;20189;-86
2022/07/12 05:23:02;;;;;;;2.50;1.20;;;16.60;99.90;;;;;;5050047;28;20193;-86
2022/07/12 05:25:35;;;;;;;4.80;1.20;;;16.60;99.90;;;;;;5051275;28;20200;-85
2022/07/12 05:28:06;;;;;;;1.88;1.05;;;16.60;99.90;;;;;;5052136;28;20190;-85
2022/07/12 05:30:36;;;;;;;3.10;1.05;;;16.50;99.90;;;;;;5060743;28;20194;-87
2022/07/12 05:33:07;;;;;;;2.03;1.20;;;16.50;99.90;;;;;;5048599;28;20197;-87
2022/07/12 05:35:38;;;;;;;1.40;0.90;;;16.40;99.90;;;;;;5036252;28;20197;-84
2022/07/12 05:38:10;;;;;;;2.35;0.90;;;16.40;99.90;;;;;;5030985;28;20232;-87
2022/07/12 05:40:43;;;;;;;2.05;1.05;;;16.40;99.90;;;;;;5045773;28;20233;-86
2022/07/12 05:43:13;;;;;;;1.10;0.88;;;16.40;99.90;;;;;;5046938;28;20200;-85
2022/07/12 05:45:45;;;;;;;2.45;1.10;;;16.40;99.90;;;;;;5044200;28;20204;-85
2022/07/12 05:48:16;;;;;;;4.13;1.00;;;16.40;99.90;;;;;;5038877;28;20196;-86
2022/07/12 05:50:46;;;;;;;1.52;1.10;;;16.30;99.90;;;;;;5050005;28;20239;-85
2022/07/12 05:53:24;;;;;;;3.80;1.00;;;16.30;99.90;;;;;;5048643;28;20232;-86
2022/07/12 05:55:58;;;;;;;1.98;1.00;;;16.40;99.90;;;;;;5047179;28;20201;-86
2022/07/12 05:58:29;;;;;;;1.13;1.00;;;16.40;99.90;;;;;;5035302;28;20225;-84
2022/07/12 06:01:02;;;;;;;3.55;1.08;;;16.40;99.90;;;;;;5040722;28;20620;-86
2022/07/12 06:03:33;;;;;;;1.75;0.98;;;16.40;99.90;;;;;;5049984;28;20566;-85
2022/07/12 06:06:04;;;;;;;1.33;0.90;;;16.40;99.90;;;;;;5049226;28;20236;-85
2022/07/12 06:08:34;;;;;;;0.77;0.68;;;16.40;99.90;;;;;;5050199;28;20270;-86
2022/07/12 06:11:07;;;;;;;1.90;0.90;;;16.40;99.90;;;;;;5045155;28;20193;-88
2022/07/12 06:13:38;;;;;;;0.98;0.77;;;16.30;99.90;;;;;;5030725;28;20252;-84
2022/07/12 06:16:10;;;;;;;2.67;1.00;;;16.20;99.90;;;;;;5044261;28;20203;-87
2022/07/12 06:18:41;;;;;;;0.93;0.90;;;16.20;99.90;;;;;;5049373;28;20221;-86
2022/07/12 06:21:11;;;;;;;1.73;1.05;;;16.20;99.90;;;;;;5030854;28;20201;-84
2022/07/12 06:23:42;;;;;;;3.70;1.13;;;16.10;99.90;;;;;;5030653;28;20201;-86
2022/07/12 06:26:14;;;;;;;0.80;0.75;;;16.10;99.90;;;;;;5030505;28;20197;-84
2022/07/12 06:28:45;;;;;;;1.00;0.90;;;16.10;99.90;;;;;;5038143;28;20208;-84
2022/07/12 06:31:16;;;;;;;1.58;0.90;;;16.00;99.90;;;;;;5039376;28;20189;-85
2022/07/12 06:33:46;;;;;;;1.38;1.10;;;16.00;99.90;;;;;;5065068;28;20220;-84
2022/07/12 06:36:17;;;;;;;2.13;1.10;;;15.90;99.90;;;;;;5033507;28;20266;-81
2022/07/12 06:38:48;;;;;;;3.67;1.40;;;15.80;99.90;;;;;;5033556;28;20229;-84
2022/07/12 06:41:23;;;;;;;1.67;1.50;;;15.80;99.90;;;;;;5048642;28;20243;-84
2022/07/12 06:43:53;;;;;;;2.78;2.15;;;15.80;99.90;;;;;;5043316;28;20200;-85
2022/07/12 06:46:24;;;;;;;3.95;3.00;;;15.70;99.90;;;;;;5042213;28;20667;-82
2022/07/12 06:48:55;;;;;;;4.60;3.28;;;15.60;99.90;;;;;;5048772;28;20255;-82
2022/07/12 06:51:25;;;;;;;3.63;3.05;;;15.60;99.90;;;;;;5053220;28;20211;-84
2022/07/12 06:53:56;;;;;;;6.32;3.95;;;15.60;99.90;;;;;;5052418;28;20216;-82
2022/07/12 06:56:29;;;;;;;5.75;3.40;;;15.50;99.90;;;;;;5052933;28;20568;-82
2022/07/12 06:59:01;;;;;;;3.40;1.92;;;15.40;99.90;;;;;;5052931;28;20614;-83
2022/07/12 07:01:32;;;;;;;1.73;1.40;;;15.40;99.90;;;;;;5049178;28;20193;-83
2022/07/12 07:04:03;;;;;;;2.67;1.60;;;15.30;99.90;;;;;;5054213;28;20209;-84
2022/07/12 07:06:34;;;;;;;2.42;1.80;;;15.30;99.90;;;;;;5034633;28;20212;-85
2022/07/12 07:09:06;;;;;;;2.55;1.60;;;15.30;99.90;;;;;;5038753;28;20267;-84
2022/07/12 07:11:39;;;;;;;1.88;1.30;;;15.20;99.90;;;;;;5042128;28;20597;-85
2022/07/12 07:14:10;;;;;;;1.40;1.20;;;15.20;99.90;;;;;;5043380;28;20208;-85
2022/07/12 07:16:41;;;;;;;3.67;2.40;;;15.10;99.90;;;;;;5050312;28;20197;-84
2022/07/12 07:19:11;;;;;;;2.85;2.08;;;15.00;99.90;;;;;;5041428;28;20635;-85
2022/07/12 07:21:43;;;;;;;3.33;2.10;;;15.00;99.90;;;;;;5054159;28;20208;-88
2022/07/12 07:24:14;;;;;;;2.40;2.00;;;14.90;99.90;;;;;;5048169;28;20650;-84
2022/07/12 07:26:47;;;;;;;4.53;2.00;;;14.90;99.90;;;;;;5033736;28;20221;-85
2022/07/12 07:32:04;;;;;;;7.53;5.82;;;14.80;99.90;;;;;;5035803;28;20680;-88
2022/07/12 07:34:35;;;;;;;4.28;2.90;;;14.80;99.90;;;;;;5041587;28;20726;-86
2022/07/12 07:37:07;;;;;;;3.47;2.25;;;14.80;99.90;;;;;;5053551;28;20229;-84
2022/07/12 07:39:38;;;;;;;2.70;2.33;;;14.80;99.90;;;;;;5052486;28;20196;-85
2022/07/12 07:42:11;;;;;;;14.38;12.57;;;14.70;99.90;;;;;;5048850;28;20188;-85
2022/07/12 07:44:42;;;;;;;35.65;31.50;;;14.70;99.90;;;;;;5052630;28;20208;-86
2022/07/12 07:47:12;;;;;;;42.22;36.70;;;14.70;99.90;;;;;;5048510;28;20194;-86
2022/07/12 07:49:43;;;;;;;36.05;31.63;;;14.70;99.90;;;;;;5041005;28;20200;-85
2022/07/12 07:52:14;;;;;;;14.20;10.57;;;14.70;99.90;;;;;;5053327;28;20196;-84
2022/07/12 07:54:44;;;;;;;7.30;5.28;;;14.70;99.90;;;;;;5050387;28;20216;-83
2022/07/12 07:57:17;;;;;;;5.15;3.92;;;14.70;99.90;;;;;;5052342;28;20250;-84
2022/07/12 07:59:47;;;;;;;5.95;5.28;;;14.60;99.90;;;;;;5049243;28;20203;-84
2022/07/12 08:02:18;;;;;;;7.80;5.97;;;14.60;99.90;;;;;;5052085;28;20315;-85
2022/07/12 08:04:49;;;;;;;6.47;4.60;;;14.60;99.90;;;;;;5046739;28;20649;-84
2022/07/12 08:07:20;;;;;;;5.00;4.50;;;14.60;99.90;;;;;;5034204;28;20197;-86
2022/07/12 08:09:52;;;;;;;4.63;3.67;;;14.60;99.90;;;;;;5033192;28;20271;-85
2022/07/12 08:12:25;;;;;;;5.07;3.33;;;14.60;99.90;;;;;;5046062;28;20626;-85
2022/07/12 08:14:57;;;;;;;40.30;33.47;;;14.60;99.90;;;;;;5052087;28;20691;-86
2022/07/12 08:17:29;;;;;;;51.28;44.80;;;14.60;99.90;;;;;;5041910;28;20189;-86
2022/07/12 08:20:00;;;;;;;76.70;68.63;;;14.50;99.90;;;;;;5033229;28;20205;-85
2022/07/12 08:22:31;;;;;;;31.33;27.92;;;14.50;99.90;;;;;;5033115;28;20600;-85
2022/07/12 08:25:02;;;;;;;14.32;12.68;;;14.50;99.90;;;;;;5042346;28;20246;-86
2022/07/12 08:27:34;;;;;;;11.30;8.82;;;14.50;99.90;;;;;;5053069;28;20196;-84
2022/07/12 08:30:05;;;;;;;16.40;13.68;;;14.50;99.90;;;;;;5050039;28;20215;-86
2022/07/12 08:32:36;;;;;;;13.95;11.70;;;14.50;99.90;;;;;;5048439;28;20208;-86
2022/07/12 08:35:08;;;;;;;9.63;8.30;;;14.40;99.90;;;;;;5035290;28;20236;-85
2022/07/12 08:37:38;;;;;;;7.72;6.35;;;14.50;99.90;;;;;;5034086;28;20231;-80
2022/07/12 08:40:11;;;;;;;7.93;5.95;;;14.40;99.90;;;;;;5048222;28;20200;-81
2022/07/12 08:42:47;;;;;;;7.10;5.45;;;14.50;99.90;;;;;;5050168;28;20192;-81
2022/07/12 08:45:18;;;;;;;6.20;4.53;;;14.50;99.90;;;;;;5049986;28;20577;-82
2022/07/12 08:47:49;;;;;;;5.75;4.18;;;14.50;99.90;;;;;;5036440;28;20221;-82
2022/07/12 08:50:20;;;;;;;6.75;4.32;;;14.50;99.90;;;;;;5050019;28;20211;-81
2022/07/12 08:52:52;;;;;;;6.78;4.47;;;14.50;99.90;;;;;;5047503;28;20204;-79
2022/07/12 08:55:25;;;;;;;6.78;4.45;;;14.50;99.90;;;;;;5048653;28;20595;-81
2022/07/12 08:57:59;;;;;;;5.47;4.45;;;14.50;99.90;;;;;;5049323;28;20255;-81
2022/07/12 09:00:30;;;;;;;7.97;5.28;;;14.40;99.90;;;;;;5043400;28;20217;-79
2022/07/12 09:03:02;;;;;;;5.75;4.72;;;14.40;99.90;;;;;;5052233;28;20564;-80
2022/07/12 09:05:33;;;;;;;10.95;6.28;;;14.40;99.90;;;;;;5042484;28;20581;-80
2022/07/12 09:08:09;;;;;;;9.68;6.38;;;14.40;99.90;;;;;;5047287;28;20216;-86
2022/07/12 09:10:55;;;;;;;7.10;5.10;;;14.30;99.90;;;;;;5043829;28;20204;-79
2022/07/12 09:13:53;;;;;;;7.30;4.97;;;14.30;99.90;;;;;;5045349;28;20212;-80
2022/07/12 09:16:25;;;;;;;7.72;4.70;;;14.30;99.90;;;;;;5043409;28;20303;-80
2022/07/12 09:19:17;;;;;;;6.03;4.47;;;14.30;99.90;;;;;;5047236;28;20254;-79
2022/07/12 09:21:52;;;;;;;8.48;4.28;;;14.30;99.90;;;;;;5047709;28;20699;-80
2022/07/12 09:24:26;;;;;;;6.03;4.03;;;14.30;99.90;;;;;;5047142;28;20219;-82
2022/07/12 09:26:59;;;;;;;5.78;3.47;;;14.30;99.90;;;;;;5036426;28;20246;-80
2022/07/12 09:29:34;;;;;;;4.95;3.15;;;14.20;99.90;;;;;;5051376;28;20270;-81
2022/07/12 09:37:47;;;;;;;5.10;3.60;;;14.10;99.90;;;;;;5050000;28;20251;-83
2022/07/12 09:40:18;;;;;;;5.63;3.80;;;14.10;99.90;;;;;;5046682;28;20319;-80
2022/07/12 09:42:50;;;;;;;4.85;3.65;;;14.10;99.90;;;;;;5047260;28;20195;-82
2022/07/12 09:45:23;;;;;;;5.75;4.25;;;14.10;99.90;;;;;;5047357;28;20197;-80
2022/07/12 09:47:55;;;;;;;6.63;4.90;;;14.10;99.90;;;;;;5044113;28;20251;-80
2022/07/12 09:50:26;;;;;;;5.95;4.63;;;14.10;99.90;;;;;;5046776;28;20197;-80
2022/07/12 09:53:00;;;;;;;4.28;3.88;;;14.10;99.90;;;;;;5049136;28;20200;-80
2022/07/12 09:55:35;;;;;;;4.63;3.20;;;14.10;99.90;;;;;;5048900;28;20269;-81
2022/07/12 09:58:07;;;;;;;3.97;3.03;;;14.10;99.90;;;;;;5046151;28;20196;-80
2022/07/12 10:00:43;;;;;;;4.10;3.22;;;14.10;99.90;;;;;;5049347;28;20230;-80
2022/07/12 10:03:17;;;;;;;6.40;4.30;;;14.00;99.90;;;;;;5052587;28;20275;-79
2022/07/12 10:05:48;;;;;;;6.43;4.80;;;14.00;99.90;;;;;;5047259;28;20218;-80
2022/07/12 10:08:21;;;;;;;8.63;4.97;;;14.00;99.90;;;;;;5049629;28;20219;-80
2022/07/12 10:10:52;;;;;;;7.32;5.13;;;13.90;99.90;;;;;;5053673;28;20203;-80
2022/07/12 10:13:24;;;;;;;4.57;3.88;;;13.90;99.90;;;;;;5052079;28;20629;-80
2022/07/12 10:16:03;;;;;;;4.65;3.40;;;13.90;99.90;;;;;;5047791;28;20225;-81
2022/07/12 10:18:33;;;;;;;5.03;3.33;;;13.90;99.90;;;;;;5054473;28;20204;-81
2022/07/12 10:21:20;;;;;;;4.40;3.35;;;13.90;99.90;;;;;;5053162;28;20717;-81
2022/07/12 10:23:50;;;;;;;6.85;3.40;;;13.90;99.90;;;;;;5047755;28;20200;-81
2022/07/12 10:26:40;;;;;;;4.55;3.40;;;13.90;99.90;;;;;;5053790;28;20208;-81
2022/07/12 10:29:12;;;;;;;6.35;3.30;;;13.90;99.90;;;;;;5046204;28;20640;-83
2022/07/12 10:31:46;;;;;;;6.35;4.57;;;13.90;99.90;;;;;;5051137;28;20192;-90
2022/07/12 10:34:22;;;;;;;6.93;4.88;;;13.90;99.90;;;;;;5049853;28;20258;-91
2022/07/12 10:37:11;;;;;;;6.95;4.93;;;13.90;99.90;;;;;;5058499;28;20215;-88
2022/07/12 10:39:42;;;;;;;8.13;5.80;;;13.90;99.90;;;;;;5056797;28;20296;-89
2022/07/12 10:42:20;;;;;;;7.28;5.72;;;13.80;99.90;;;;;;5054869;28;20286;-86
2022/07/12 10:44:51;;;;;;;7.18;5.05;;;13.80;99.90;;;;;;5049185;28;20192;-85
2022/07/12 10:47:24;;;;;;;6.28;4.32;;;13.80;99.90;;;;;;5054127;28;20193;-85
2022/07/12 10:49:55;;;;;;;5.88;4.35;;;13.80;99.90;;;;;;5038529;28;20204;-86
2022/07/12 10:52:30;;;;;;;5.45;4.20;;;13.80;99.90;;;;;;5036043;28;20193;-86
2022/07/12 10:55:21;;;;;;;5.90;4.00;;;13.70;99.90;;;;;;5058788;28;20212;-86
2022/07/12 10:57:54;;;;;;;7.03;3.97;;;13.70;99.90;;;;;;5057373;28;20189;-86
2022/07/12 11:00:25;;;;;;;5.57;4.28;;;13.70;99.90;;;;;;5053999;28;20246;-86
2022/07/12 11:03:04;;;;;;;5.20;3.88;;;13.60;99.90;;;;;;5053782;28;20215;-87
2022/07/12 11:05:35;;;;;;;6.35;4.68;;;13.60;99.90;;;;;;5039215;28;20193;-86
2022/07/12 11:08:05;;;;;;;7.38;4.10;;;13.60;99.90;;;;;;5034139;28;20182;-86
2022/07/12 11:10:36;;;;;;;8.07;4.57;;;13.60;99.90;;;;;;5034669;28;20193;-87
2022/07/12 11:13:23;;;;;;;6.82;4.90;;;13.60;99.90;;;;;;5035473;28;20197;-86
2022/07/12 11:16:03;;;;;;;6.95;4.80;;;13.60;99.90;;;;;;5050166;28;20263;-88
2022/07/12 11:18:37;;;;;;;6.18;4.50;;;13.60;99.90;;;;;;5054658;28;20212;-86
2022/07/12 11:21:08;;;;;;;7.57;4.90;;;13.60;99.90;;;;;;5041112;28;20308;-82
2022/07/12 11:23:40;;;;;;;9.95;5.13;;;13.70;99.90;;;;;;5040748;28;20200;-82
2022/07/12 11:26:13;;;;;;;6.15;5.00;;;13.70;99.90;;;;;;5044397;28;20662;-82
2022/07/12 11:28:47;;;;;;;6.95;4.93;;;13.70;99.90;;;;;;5050544;28;20288;-81
2022/07/12 11:31:19;;;;;;;7.80;5.10;;;13.70;99.90;;;;;;5042059;28;20583;-82
2022/07/12 11:33:52;;;;;;;6.53;4.88;;;13.70;99.90;;;;;;5044564;28;20887;-82
2022/07/12 11:36:29;;;;;;;6.38;4.65;;;13.70;99.90;;;;;;5051119;28;20304;-84
2022/07/12 11:39:00;;;;;;;9.95;5.35;;;13.70;99.90;;;;;;5050703;28;20264;-81
2022/07/12 11:41:30;;;;;;;8.57;5.32;;;13.70;99.90;;;;;;5051086;28;20248;-81
2022/07/12 11:44:01;;;;;;;9.98;5.35;;;13.70;99.90;;;;;;5049204;28;20208;-82
2022/07/12 11:46:32;;;;;;;6.43;4.97;;;13.70;99.90;;;;;;5049775;28;20207;-85
2022/07/12 11:49:05;;;;;;;6.68;5.22;;;13.70;99.90;;;;;;5042836;28;20197;-84
2022/07/12 11:51:36;;;;;;;7.93;5.32;;;13.70;99.90;;;;;;5031903;28;20225;-86
2022/07/12 11:54:07;;;;;;;8.63;5.55;;;13.60;99.90;;;;;;5048909;28;20196;-86
2022/07/12 11:56:37;;;;;;;6.97;5.05;;;13.60;99.90;;;;;;5042950;28;20221;-86
2022/07/12 11:59:08;;;;;;;7.22;5.22;;;13.50;99.90;;;;;;5051931;28;20221;-85
2022/07/12 12:01:39;;;;;;;6.45;5.22;;;13.60;99.90;;;;;;5040244;28;20221;-84
2022/07/12 12:04:15;;;;;;;7.68;5.10;;;13.60;99.90;;;;;;5033334;28;20221;-84
2022/07/12 12:06:46;;;;;;;7.82;5.20;;;13.60;99.90;;;;;;5040720;28;20220;-85
2022/07/12 12:09:17;;;;;;;9.63;5.70;;;13.60;99.90;;;;;;5045473;28;20224;-84
2022/07/12 12:11:47;;;;;;;7.15;5.03;;;13.60;99.90;;;;;;5051730;28;20228;-83
2022/07/12 12:14:18;;;;;;;6.47;4.97;;;13.50;99.90;;;;;;5043766;28;20695;-83
2022/07/12 12:16:49;;;;;;;9.82;5.55;;;13.50;99.90;;;;;;5052935;28;20686;-82
2022/07/12 12:19:21;;;;;;;8.07;4.97;;;13.40;99.90;;;;;;5051501;28;20196;-82
2022/07/12 12:21:52;;;;;;;5.82;4.60;;;13.40;99.90;;;;;;5051807;28;20699;-81
2022/07/12 12:24:22;;;;;;;6.65;4.88;;;13.30;99.90;;;;;;5051069;28;20231;-82
2022/07/12 12:26:53;;;;;;;6.47;4.68;;;13.30;99.90;;;;;;5052160;28;20239;-82
2022/07/12 12:29:44;;;;;;;5.07;4.57;;;13.30;99.90;;;;;;5051033;28;20200;-82
2022/07/12 12:32:22;;;;;;;7.97;5.13;;;13.30;99.90;;;;;;5046296;28;20568;-82
2022/07/12 12:35:15;;;;;;;6.32;4.68;;;13.30;99.90;;;;;;5042768;28;20201;-82
2022/07/12 12:37:53;;;;;;;5.97;4.50;;;13.30;99.90;;;;;;5049885;28;20231;-83
2022/07/12 12:40:25;;;;;;;7.93;4.97;;;13.30;99.90;;;;;;5053835;28;20543;-83
2022/07/12 12:43:08;;;;;;;6.25;4.65;;;13.30;99.90;;;;;;5048803;28;20220;-84
2022/07/12 12:45:51;;;;;;;5.63;4.70;;;13.30;99.90;;;;;;5040327;28;20308;-82
2022/07/12 12:48:22;;;;;;;7.15;4.78;;;13.30;99.90;;;;;;5042046;28;20225;-83
2022/07/12 12:50:56;;;;;;;5.88;4.53;;;13.30;99.90;;;;;;5037887;28;20613;-82
2022/07/12 12:53:28;;;;;;;8.27;4.63;;;13.30;99.90;;;;;;5044234;28;20225;-83
2022/07/12 12:56:00;;;;;;;4.93;4.35;;;13.30;99.90;;;;;;5037690;28;20232;-85
2022/07/12 12:58:31;;;;;;;7.45;4.70;;;13.30;99.90;;;;;;5033278;28;20186;-84
2022/07/12 13:01:01;;;;;;;6.35;4.47;;;13.30;99.90;;;;;;5039816;28;20221;-84
2022/07/12 13:03:33;;;;;;;5.85;4.10;;;13.30;99.90;;;;;;5050857;28;20221;-84
2022/07/12 13:06:06;;;;;;;4.80;3.88;;;13.40;99.90;;;;;;5039805;28;20208;-81
2022/07/12 13:08:37;;;;;;;5.38;3.80;;;13.30;99.90;;;;;;5030941;28;20259;-81
2022/07/12 13:11:23;;;;;;;5.40;3.90;;;13.40;99.90;;;;;;5050639;28;20311;-81
2022/07/12 13:13:54;;;;;;;4.35;3.28;;;13.30;99.90;;;;;;5049014;28;20262;-81
2022/07/12 13:16:25;;;;;;;4.55;2.90;;;13.30;99.90;;;;;;5044888;28;20228;-82
2022/07/12 13:18:56;;;;;;;3.53;2.70;;;13.20;99.90;;;;;;5048273;28;20205;-79
2022/07/12 13:21:28;;;;;;;4.57;2.70;;;13.30;99.90;;;;;;5049330;28;20254;-82